Time;durP1;ratioP1;P1;durP2;ratioP2;P2;SDS_P1;SDS_P2;PMS_P1;PMS_P2;Temp;Humidity;BMP_temperature;BMP_pressure;BME280_temperature;BME280_humidity;BME280_pressure;Samples;Min_cycle;Max_cycle;Signal;HPM_P1;HPM_P2
2022/06/14 00:01:36;;;;;;;;;;;;;;;16.10;44.63;101161.50;4919825;28;98553;-68
2022/06/14 00:04:01;;;;;;;;;;;;;;;16.10;44.67;101166.94;4914411;28;112252;-62
2022/06/14 00:06:29;;;;;;;;;;;;;;;16.08;44.45;101171.06;4901970;28;124734;-63
2022/06/14 00:08:55;;;;;;;;;;;;;;;16.05;44.55;101166.19;4901807;28;98125;-63
2022/06/14 00:11:24;;;;;;;;;;;;;;;16.01;44.45;101167.88;4901785;28;127932;-68
2022/06/14 00:13:50;;;;;;;;;;;;;;;15.98;44.65;101165.72;4908823;28;98876;-62
2022/06/14 00:16:16;;;;;;;;;;;;;;;15.94;44.99;101165.47;4922918;28;98300;-67
2022/06/14 00:18:42;;;;;;;;;;;;;;;15.91;44.87;101175.00;4922954;28;97870;-62
2022/06/14 00:21:08;;;;;;;;;;;;;;;15.90;45.24;101173.38;4908889;28;126266;-67
2022/06/14 00:23:34;;;;;;;;;;;;;;;15.88;45.05;101178.31;4920729;28;107914;-62
2022/06/14 00:26:00;;;;;;;;;;;;;;;15.87;45.44;101181.28;4905744;28;127563;-62
2022/06/14 00:28:28;;;;;;;;;;;;;;;15.84;45.38;101177.25;4921062;28;100281;-69
2022/06/14 00:30:56;;;;;;;;;;;;;;;15.80;45.29;101183.53;4923942;28;98650;-62
2022/06/14 00:33:22;;;;;;;;;;;;;;;15.77;45.46;101184.94;4918402;28;122418;-63
2022/06/14 00:35:48;;;;;;;;;;;;;;;15.75;45.56;101187.09;4903034;28;126168;-62
2022/06/14 00:38:15;;;;;;;;;;;;;;;15.70;45.59;101189.88;4926956;28;98008;-62
2022/06/14 00:40:41;;;;;;;;;;;;;;;15.65;45.66;101195.34;4922130;28;98410;-62
2022/06/14 00:43:15;;;;;;;;;;;;;;;15.60;45.92;101206.22;4917723;28;122539;-67
2022/06/14 00:45:41;;;;;;;;;;;;;;;15.55;46.14;101201.63;4919031;28;98247;-67
2022/06/14 00:48:14;;;;;;;;;;;;;;;15.52;45.92;101195.94;4902600;28;97701;-62
2022/06/14 00:50:45;;;;;;;;;;;;;;;15.50;46.06;101198.16;4901616;28;99163;-62
2022/06/14 00:53:15;;;;;;;;;;;;;;;15.47;46.15;101196.78;4919561;28;114716;-67
2022/06/14 00:55:46;;;;;;;;;;;;;;;15.45;46.09;101209.88;4917328;28;123449;-62
2022/06/14 00:58:14;;;;;;;;;;;;;;;15.41;46.15;101204.19;4912653;28;110168;-62
2022/06/14 01:00:47;;;;;;;;;;;;;;;15.38;46.47;101204.75;4900748;28;126010;-62
2022/06/14 01:03:21;;;;;;;;;;;;;;;15.35;46.25;101202.56;4916554;28;99604;-67
2022/06/14 01:06:05;;;;;;;;;;;;;;;15.32;46.21;101199.59;4918761;28;120389;-67
2022/06/14 01:08:32;;;;;;;;;;;;;;;15.30;46.49;101208.06;4905413;28;97939;-62
2022/06/14 01:10:58;;;;;;;;;;;;;;;15.26;46.48;101207.00;4914927;28;126718;-68
2022/06/14 01:13:25;;;;;;;;;;;;;;;15.23;46.71;101204.81;4901680;28;127805;-62
2022/06/14 01:15:53;;;;;;;;;;;;;;;15.18;46.64;101204.88;4921606;28;98236;-62
2022/06/14 01:18:18;;;;;;;;;;;;;;;15.14;46.75;101203.81;4922141;28;97864;-67
2022/06/14 01:20:44;;;;;;;;;;;;;;;15.12;46.94;101211.41;4921293;28;126292;-67
2022/06/14 01:23:13;;;;;;;;;;;;;;;15.10;46.93;101208.16;4901675;28;125856;-69
2022/06/14 01:25:41;;;;;;;;;;;;;;;15.06;47.04;101204.38;4917640;28;112129;-62
2022/06/14 01:28:07;;;;;;;;;;;;;;;15.01;46.97;101213.34;4915793;28;114354;-67
2022/06/14 01:30:34;;;;;;;;;;;;;;;14.94;47.00;101213.66;4899005;28;124268;-62
2022/06/14 01:33:01;;;;;;;;;;;;;;;14.86;46.90;101211.53;4916650;28;111563;-68
2022/06/14 01:35:29;;;;;;;;;;;;;;;14.79;47.46;101204.78;4916719;28;98815;-62
2022/06/14 01:37:56;;;;;;;;;;;;;;;14.72;47.61;101216.72;4930992;28;106637;-68
2022/06/14 01:40:33;;;;;;;;;;;;;;;14.67;47.66;101205.91;4916216;28;98243;-67
2022/06/14 01:43:28;;;;;;;;;;;;;;;14.63;47.40;101207.53;4905189;28;98617;-62
2022/06/14 01:46:02;;;;;;;;;;;;;;;14.56;47.97;101209.72;4922297;28;98091;-62
2022/06/14 01:48:44;;;;;;;;;;;;;;;14.45;47.63;101208.91;4915904;28;97936;-62
2022/06/14 01:54:14;;;;;;;;;;;;;;;14.20;47.99;101217.91;4920198;28;97912;-67
2022/06/14 01:56:49;;;;;;;;;;;;;;;14.14;48.37;101216.28;4906072;28;100353;-67
2022/06/14 01:59:36;;;;;;;;;;;;;;;14.09;48.23;101224.44;4901742;28;115148;-67
2022/06/14 02:02:23;;;;;;;;;;;;;;;14.03;48.70;101222.81;4903737;28;119494;-62
2022/06/14 02:05:03;;;;;;;;;;;;;;;13.97;48.77;101222.00;4900883;28;125657;-62
2022/06/14 02:07:34;;;;;;;;;;;;;;;13.90;48.51;101223.34;4904149;28;120021;-67
2022/06/14 02:10:19;;;;;;;;;;;;;;;13.85;48.54;101231.50;4920694;28;98266;-62
2022/06/14 02:13:18;;;;;;;;;;;;;;;13.80;49.08;101235.00;4906230;28;98370;-62
2022/06/14 02:15:53;;;;;;;;;;;;;;;13.74;48.90;101231.47;4905011;28;99006;-62
2022/06/14 02:18:25;;;;;;;;;;;;;;;13.70;49.31;101226.88;4912686;28;120080;-67
2022/06/14 02:21:18;;;;;;;;;;;;;;;13.67;49.02;101228.22;4906221;28;97773;-64
2022/06/14 02:24:00;;;;;;;;;;;;;;;13.66;49.43;101225.78;4921684;28;98178;-62
2022/06/14 02:26:34;;;;;;;;;;;;;;;13.65;49.37;101233.09;4917016;28;123336;-67
2022/06/14 02:29:34;;;;;;;;;;;;;;;13.65;49.32;101235.00;4909952;28;98219;-62
2022/06/14 02:32:11;;;;;;;;;;;;;;;13.64;49.43;101230.66;4914120;28;110711;-67
2022/06/14 02:34:42;;;;;;;;;;;;;;;13.60;49.22;101230.38;4920108;28;98769;-67
2022/06/14 02:37:10;;;;;;;;;;;;;;;13.59;49.43;101255.84;4914120;28;99112;-67
2022/06/14 02:39:38;;;;;;;;;;;;;;;13.60;49.67;101248.53;4921960;28;98387;-62
2022/06/14 02:42:11;;;;;;;;;;;;;;;13.60;49.68;101253.97;4913827;28;108512;-67
2022/06/14 02:44:45;;;;;;;;;;;;;;;13.60;49.67;101252.06;4931535;28;125558;-62
2022/06/14 02:47:31;;;;;;;;;;;;;;;13.59;49.83;101255.84;4920164;28;120801;-64
2022/06/14 02:50:00;;;;;;;;;;;;;;;13.58;49.83;101262.34;4921821;28;98761;-69
2022/06/14 02:52:38;;;;;;;;;;;;;;;13.55;49.78;101260.16;4914158;28;99121;-62
2022/06/14 02:55:27;;;;;;;;;;;;;;;13.55;49.94;101259.34;4923331;28;97995;-62
2022/06/14 02:57:59;;;;;;;;;;;;;;;13.52;49.81;101271.56;4905670;28;127389;-68
2022/06/14 03:00:40;;;;;;;;;;;;;;;13.52;49.89;101268.84;4902204;28;114792;-67
2022/06/14 03:03:26;;;;;;;;;;;;;;;13.51;50.04;101264.47;4902078;28;98103;-67
2022/06/14 03:06:00;;;;;;;;;;;;;;;13.50;49.99;101269.09;4921034;28;98680;-62
2022/06/14 03:08:31;;;;;;;;;;;;;;;13.50;50.18;101271.81;4902681;28;99097;-67
2022/06/14 03:11:17;;;;;;;;;;;;;;;13.49;50.16;101270.19;4901636;28;98577;-67
2022/06/14 03:13:52;;;;;;;;;;;;;;;13.50;50.14;101279.13;4901887;28;97854;-67
2022/06/14 03:16:43;;;;;;;;;;;;;;;13.54;50.21;101287.53;4903898;28;114417;-67
2022/06/14 03:19:18;;;;;;;;;;;;;;;13.58;50.22;101294.84;4915677;28;98442;-62
2022/06/14 03:21:51;;;;;;;;;;;;;;;13.60;50.17;101286.47;4908858;28;98454;-67
2022/06/14 03:24:36;;;;;;;;;;;;;;;13.62;50.02;101284.28;4919787;28;117591;-67
2022/06/14 03:27:22;;;;;;;;;;;;;;;13.66;50.20;101288.91;4927205;28;98325;-67
2022/06/14 03:29:51;;;;;;;;;;;;;;;13.71;50.17;101288.09;4919966;28;115755;-67
2022/06/14 03:32:29;;;;;;;;;;;;;;;13.74;50.07;101290.28;4922508;28;98010;-62
2022/06/14 03:34:57;;;;;;;;;;;;;;;13.79;50.30;101294.88;4919100;28;98076;-62
2022/06/14 03:37:23;;;;;;;;;;;;;;;13.81;50.32;101298.97;4919648;28;127475;-62
2022/06/14 03:39:55;;;;;;;;;;;;;;;13.83;50.17;101302.19;4923126;28;98688;-62
2022/06/14 03:42:21;;;;;;;;;;;;;;;13.86;50.39;101303.56;4909197;28;98291;-62
2022/06/14 03:44:47;;;;;;;;;;;;;;;13.89;50.22;101306.56;4903721;28;98134;-67
2022/06/14 03:47:18;;;;;;;;;;;;;;;13.90;50.09;101299.22;4917703;28;126617;-62
2022/06/14 03:49:47;;;;;;;;;;;;;;;13.92;50.43;101302.50;4922590;28;99140;-67
2022/06/14 03:52:32;;;;;;;;;;;;;;;13.94;50.30;101294.91;4921125;28;120552;-62
2022/06/14 03:55:22;;;;;;;;;;;;;;;13.97;50.34;101289.75;4919476;28;97955;-67
2022/06/14 03:58:01;;;;;;;;;;;;;;;14.00;50.50;101296.53;4926485;28;98287;-67
2022/06/14 04:00:54;;;;;;;;;;;;;;;14.00;50.34;101294.66;4905074;28;104250;-67
2022/06/14 04:03:42;;;;;;;;;;;;;;;14.02;50.43;101294.38;4903693;28;97894;-62
2022/06/14 04:06:29;;;;;;;;;;;;;;;14.03;50.56;101292.47;4902687;28;97702;-67
2022/06/14 04:09:27;;;;;;;;;;;;;;;14.06;50.39;101292.75;4918171;28;124325;-67
2022/06/14 04:12:06;;;;;;;;;;;;;;;14.10;50.58;101303.84;4919585;28;98926;-62
2022/06/14 04:15:10;;;;;;;;;;;;;;;14.14;50.42;101304.94;4899946;28;98786;-67
2022/06/14 04:17:50;;;;;;;;;;;;;;;14.18;50.51;101301.41;4917728;28;97773;-67
2022/06/14 04:20:19;;;;;;;;;;;;;;;14.23;50.22;101300.63;4920287;28;99009;-67
2022/06/14 04:23:09;;;;;;;;;;;;;;;14.28;50.24;101299.81;4918910;28;127863;-67
2022/06/14 04:25:35;;;;;;;;;;;;;;;14.32;50.25;101303.59;4912885;28;97855;-61
2022/06/14 04:28:16;;;;;;;;;;;;;;;14.36;50.18;101299.25;4913164;28;97999;-67
2022/06/14 04:31:11;;;;;;;;;;;;;;;14.42;50.01;101300.88;4903594;28;99013;-67
2022/06/14 04:33:49;;;;;;;;;;;;;;;14.42;50.19;101295.44;4901213;28;116681;-68
2022/06/14 04:36:18;;;;;;;;;;;;;;;14.47;50.13;101298.16;4911485;28;128056;-62
2022/06/14 04:38:49;;;;;;;;;;;;;;;14.51;50.56;101295.75;4921190;28;106725;-67
2022/06/14 04:41:25;;;;;;;;;;;;;;;14.53;50.16;101293.56;4920196;28;103875;-67
2022/06/14 04:44:00;;;;;;;;;;;;;;;14.59;50.21;101295.19;4918146;28;119715;-67
2022/06/14 04:46:54;;;;;;;;;;;;;;;14.67;50.01;101300.88;4907090;28;118832;-67
2022/06/14 04:49:33;;;;;;;;;;;;;;;14.81;50.21;101294.84;4934428;28;97718;-68
2022/06/14 04:52:04;;;;;;;;;;;;;;;14.94;49.78;101295.09;4918351;28;100629;-67
2022/06/14 04:54:35;;;;;;;;;;;;;;;15.10;49.38;101300.50;4915697;28;99437;-61
2022/06/14 04:57:10;;;;;;;;;;;;;;;15.23;49.35;101297.16;4900121;28;114840;-67
2022/06/14 04:59:47;;;;;;;;;;;;;;;15.39;49.27;101298.72;4899254;28;117589;-66
2022/06/14 05:02:26;;;;;;;;;;;;;;;15.54;49.20;101299.75;4915603;28;98744;-66
2022/06/14 05:04:57;;;;;;;;;;;;;;;15.64;48.99;101303.22;4899248;28;127618;-61
2022/06/14 05:07:32;;;;;;;;;;;;;;;15.74;48.85;101302.34;4920563;28;98252;-68
2022/06/14 05:10:09;;;;;;;;;;;;;;;15.89;48.39;101296.81;4913540;28;97979;-61
2022/06/14 05:12:39;;;;;;;;;;;;;;;16.18;48.12;101302.28;4899690;28;99191;-67
2022/06/14 05:15:24;;;;;;;;;;;;;;;16.49;47.78;101303.94;4900088;28;127710;-62
2022/06/14 05:18:02;;;;;;;;;;;;;;;16.73;47.78;101307.53;4901664;28;98366;-67
2022/06/14 05:20:49;;;;;;;;;;;;;;;16.96;47.26;101308.66;4905836;28;117138;-67
2022/06/14 05:23:26;;;;;;;;;;;;;;;17.15;46.94;101304.06;4914440;28;98722;-61
2022/06/14 05:26:10;;;;;;;;;;;;;;;17.25;46.91;101305.88;4909895;28;125612;-67
2022/06/14 05:28:55;;;;;;;;;;;;;;;17.45;46.45;101314.84;4923949;28;98073;-61
2022/06/14 05:31:29;;;;;;;;;;;;;;;17.65;46.02;101309.97;4898050;28;116104;-67
2022/06/14 05:34:04;;;;;;;;;;;;;;;18.00;45.66;101316.03;4919770;28;98759;-61
2022/06/14 05:36:35;;;;;;;;;;;;;;;18.13;45.49;101311.72;4914836;28;99105;-61
2022/06/14 05:39:12;;;;;;;;;;;;;;;18.26;45.29;101308.22;4922086;28;124513;-61
2022/06/14 05:41:40;;;;;;;;;;;;;;;18.48;45.02;101309.50;4914669;28;118002;-67
2022/06/14 05:44:33;;;;;;;;;;;;;;;18.75;44.54;101315.03;4920172;28;103296;-61
2022/06/14 05:47:01;;;;;;;;;;;;;;;19.61;43.00;101315.22;4916109;28;127602;-61
2022/06/14 05:49:33;;;;;;;;;;;;;;;20.53;41.87;101314.94;4921295;28;128350;-62
2022/06/14 05:52:08;;;;;;;;;;;;;;;21.17;41.07;101318.09;4903891;28;113908;-61
2022/06/14 05:54:45;;;;;;;;;;;;;;;21.12;41.17;101314.72;4922230;28;98345;-61
2022/06/14 05:57:34;;;;;;;;;;;;;;;21.06;41.07;101319.50;4916425;28;99225;-61
2022/06/14 06:00:17;;;;;;;;;;;;;;;21.43;40.16;101326.44;4902622;28;98058;-61
2022/06/14 06:03:01;;;;;;;;;;;;;;;21.81;40.08;101326.63;4904768;28;97792;-67
2022/06/14 06:05:39;;;;;;;;;;;;;;;22.03;39.67;101325.66;4919039;28;112579;-61
2022/06/14 06:08:08;;;;;;;;;;;;;;;23.35;37.59;101324.94;4931630;28;99034;-61
2022/06/14 06:10:36;;;;;;;;;;;;;;;25.15;35.31;101328.28;4903783;28;97917;-61
2022/06/14 06:13:13;;;;;;;;;;;;;;;25.00;35.85;101336.41;4934810;28;98031;-67
2022/06/14 06:15:45;;;;;;;;;;;;;;;25.24;35.95;101341.94;4917252;28;124744;-61
2022/06/14 06:18:14;;;;;;;;;;;;;;;25.73;35.43;101338.28;4902106;28;105016;-61
2022/06/14 06:20:47;;;;;;;;;;;;;;;26.09;34.52;101340.13;4902144;28;98073;-67
2022/06/14 06:23:19;;;;;;;;;;;;;;;26.72;33.66;101328.41;4908347;28;115463;-61
2022/06/14 06:25:47;;;;;;;;;;;;;;;28.01;32.07;101329.41;4907878;28;99400;-67
2022/06/14 06:28:17;;;;;;;;;;;;;;;27.99;31.94;101338.09;4921830;28;98582;-61
2022/06/14 06:30:56;;;;;;;;;;;;;;;28.78;31.32;101334.03;4918775;28;98355;-67
2022/06/14 06:33:22;;;;;;;;;;;;;;;28.78;30.92;101331.25;4921958;28;104104;-67
2022/06/14 06:36:06;;;;;;;;;;;;;;;29.47;29.75;101331.13;4916552;28;98557;-66
2022/06/14 06:38:32;;;;;;;;;;;;;;;29.38;30.09;101322.28;4903919;28;98623;-67
2022/06/14 06:44:33;;;;;;;;;;;;;;;29.28;29.06;101335.66;4920165;28;97771;-66
2022/06/14 06:47:22;;;;;;;;;;;;;;;29.08;29.10;101323.84;4901866;28;107827;-61
2022/06/14 06:50:09;;;;;;;;;;;;;;;28.94;29.21;101325.56;4920980;28;98662;-66
2022/06/14 06:52:49;;;;;;;;;;;;;;;28.83;28.82;101328.16;4910030;28;98928;-67
2022/06/14 06:55:26;;;;;;;;;;;;;;;28.69;28.73;101341.78;4921670;28;114935;-61
2022/06/14 06:57:53;;;;;;;;;;;;;;;28.61;29.18;101338.91;4920237;28;98287;-61
2022/06/14 07:00:19;;;;;;;;;;;;;;;28.55;28.73;101334.81;4905474;28;98660;-66
2022/06/14 07:03:01;;;;;;;;;;;;;;;28.65;28.52;101333.44;4904102;28;98038;-68
2022/06/14 07:05:27;;;;;;;;;;;;;;;28.75;28.77;101329.22;4902940;28;98153;-61
2022/06/14 07:08:02;;;;;;;;;;;;;;;28.88;28.14;101333.38;4921447;28;127786;-66
2022/06/14 07:10:38;;;;;;;;;;;;;;;28.96;28.28;101339.84;4903405;28;99055;-61
2022/06/14 07:13:18;;;;;;;;;;;;;;;28.97;28.29;101333.16;4919902;28;98516;-66
2022/06/14 07:16:07;;;;;;;;;;;;;;;28.96;28.09;101334.31;4920327;28;98243;-61
2022/06/14 07:18:40;;;;;;;;;;;;;;;29.16;27.45;101341.41;4909953;28;98764;-61
2022/06/14 07:21:27;;;;;;;;;;;;;;;29.48;26.86;101328.00;4902631;28;98319;-60
2022/06/14 07:23:55;;;;;;;;;;;;;;;29.83;26.69;101340.78;4920634;28;98106;-68
2022/06/14 07:26:33;;;;;;;;;;;;;;;29.90;26.40;101324.16;4920886;28;97820;-60
2022/06/14 07:29:19;;;;;;;;;;;;;;;29.95;26.65;101315.53;4918918;28;98740;-66
2022/06/14 07:31:57;;;;;;;;;;;;;;;29.77;27.03;101326.41;4914946;28;98220;-66
2022/06/14 07:34:22;;;;;;;;;;;;;;;29.79;26.17;101318.50;4915871;28;98128;-60
2022/06/14 07:36:56;;;;;;;;;;;;;;;30.17;26.34;101322.13;4901943;28;117402;-60
2022/06/14 07:39:33;;;;;;;;;;;;;;;30.61;25.84;101320.56;4915421;28;100113;-66
2022/06/14 07:42:13;;;;;;;;;;;;;;;30.83;25.91;101327.94;4909650;28;98073;-60
2022/06/14 07:44:55;;;;;;;;;;;;;;;30.54;26.27;101319.34;4900794;28;98001;-60
2022/06/14 07:47:33;;;;;;;;;;;;;;;30.09;26.22;101317.66;4914026;28;116843;-60
2022/06/14 07:50:08;;;;;;;;;;;;;;;29.80;26.47;101324.88;4902556;28;98710;-60
2022/06/14 07:52:42;;;;;;;;;;;;;;;30.16;25.91;101314.97;4930283;28;99241;-67
2022/06/14 07:55:48;;;;;;;;;;;;;;;31.08;25.18;101305.84;4920421;28;98810;-66
2022/06/14 07:58:42;;;;;;;;;;;;;;;31.99;24.47;101314.28;4919037;28;98596;-61
2022/06/14 08:01:15;;;;;;;;;;;;;;;32.74;24.05;101311.66;4921539;28;98140;-61
2022/06/14 08:04:18;;;;;;;;;;;;;;;33.46;22.87;101312.38;4903349;28;119943;-67
2022/06/14 08:06:45;;;;;;;;;;;;;;;34.50;22.71;101318.22;4921729;28;97992;-66
2022/06/14 08:09:33;;;;;;;;;;;;;;;34.93;22.05;101318.63;4908415;28;113637;-65
2022/06/14 08:11:59;;;;;;;;;;;;;;;33.10;23.51;101306.84;4923664;28;98180;-60
2022/06/14 08:14:40;;;;;;;;;;;;;;;34.07;22.79;101307.28;4922289;28;98109;-60
2022/06/14 08:17:08;;;;;;;;;;;;;;;33.06;23.52;101302.47;4921149;28;98234;-60
2022/06/14 08:19:36;;;;;;;;;;;;;;;32.32;23.40;101302.03;4908463;28;98006;-67
2022/06/14 08:22:07;;;;;;;;;;;;;;;33.25;22.97;101299.25;4901599;28;98244;-60
2022/06/14 08:24:41;;;;;;;;;;;;;;;34.71;21.46;101305.28;4914100;28;124552;-60
2022/06/14 08:27:26;;;;;;;;;;;;;;;35.90;20.73;101301.56;4894457;28;98911;-60
2022/06/14 08:30:13;;;;;;;;;;;;;;;36.28;20.73;101295.81;4920665;28;113975;-65
2022/06/14 08:32:42;;;;;;;;;;;;;;;37.72;19.46;101310.88;4920126;28;98886;-60
2022/06/14 08:35:32;;;;;;;;;;;;;;;37.94;19.17;101308.41;4924534;28;102518;-65
2022/06/14 08:38:14;;;;;;;;;;;;;;;37.44;19.56;101303.84;4920886;28;127612;-60
2022/06/14 08:41:02;;;;;;;;;;;;;;;38.69;18.99;101296.16;4920660;28;98214;-60
2022/06/14 08:43:49;;;;;;;;;;;;;;;37.63;19.71;101288.19;4921180;28;98341;-66
2022/06/14 08:46:21;;;;;;;;;;;;;;;35.68;20.47;101277.03;4920639;28;106096;-66
2022/06/14 08:48:56;;;;;;;;;;;;;;;34.15;21.06;101285.69;4924235;28;97725;-60
2022/06/14 08:51:28;;;;;;;;;;;;;;;32.86;21.83;101286.13;4922454;28;98160;-65
2022/06/14 08:54:16;;;;;;;;;;;;;;;34.61;20.52;101288.16;4924791;28;98693;-66
2022/06/14 08:57:00;;;;;;;;;;;;;;;36.57;19.79;101286.97;4929918;28;98308;-60
2022/06/14 08:59:49;;;;;;;;;;;;;;;38.06;18.87;101291.63;4911730;28;103236;-65
2022/06/14 09:02:24;;;;;;;;;;;;;;;38.87;18.27;101290.09;4903805;28;98011;-65
2022/06/14 09:05:12;;;;;;;;;;;;;;;37.46;19.25;101276.09;4902556;28;123717;-65
2022/06/14 09:08:09;;;;;;;;;;;;;;;36.89;19.29;101283.56;4921279;28;98671;-60
2022/06/14 09:11:00;;;;;;;;;;;;;;;38.00;18.17;101282.13;4924386;28;97990;-61
2022/06/14 09:13:25;;;;;;;;;;;;;;;39.01;17.76;101286.84;4926136;28;97861;-66
2022/06/14 09:16:00;;;;;;;;;;;;;;;37.34;18.60;101274.72;4924280;28;103279;-66
2022/06/14 09:18:53;;;;;;;;;;;;;;;35.49;19.50;101273.69;4922788;28;98625;-61
2022/06/14 09:21:33;;;;;;;;;;;;;;;34.13;20.45;101274.13;4925270;28;98379;-61
2022/06/14 09:24:01;;;;;;;;;;;;;;;34.91;19.66;101278.28;4923424;28;97899;-61
2022/06/14 09:26:34;;;;;;;;;;;;;;;35.25;20.03;101266.34;4924324;28;98012;-60
2022/06/14 09:29:31;;;;;;;;;;;;;;;35.46;19.84;101265.28;4922682;28;98833;-60
2022/06/14 09:32:27;;;;;;;;;;;;;;;35.60;19.52;101260.31;4923269;28;98117;-61
2022/06/14 09:35:08;;;;;;;;;;;;;;;34.44;20.17;101263.91;4907635;28;98033;-66
2022/06/14 09:38:14;;;;;;;;;;;;;;;33.61;20.42;101260.81;4934498;28;98723;-60
2022/06/14 09:41:03;;;;;;;;;;;;;;;34.19;19.90;101242.53;4922282;28;98380;-61
2022/06/14 09:43:54;;;;;;;;;;;;;;;34.95;19.28;101264.25;4907043;28;98076;-65
2022/06/14 09:46:29;;;;;;;;;;;;;;;34.93;19.62;101268.25;4902009;28;107104;-67
2022/06/14 09:49:04;;;;;;;;;;;;;;;36.58;18.43;101257.66;4920017;28;98948;-66
2022/06/14 09:51:43;;;;;;;;;;;;;;;35.29;19.24;101248.28;4902877;28;99063;-67
2022/06/14 09:54:09;;;;;;;;;;;;;;;36.11;18.82;101249.97;4914331;28;126137;-67
2022/06/14 09:57:07;;;;;;;;;;;;;;;34.36;20.15;101251.97;4917852;28;98067;-66
2022/06/14 09:59:51;;;;;;;;;;;;;;;33.72;20.28;101257.97;4919499;28;127532;-66
2022/06/14 10:02:35;;;;;;;;;;;;;;;34.42;19.78;101255.09;4905181;28;115428;-61
2022/06/14 10:05:08;;;;;;;;;;;;;;;34.93;19.55;101261.84;4921875;28;98159;-62
2022/06/14 10:07:46;;;;;;;;;;;;;;;36.75;18.43;101256.56;4923281;28;97887;-66
2022/06/14 10:10:18;;;;;;;;;;;;;;;38.05;17.79;101253.50;4907431;28;98507;-65
2022/06/14 10:13:18;;;;;;;;;;;;;;;39.33;17.21;101265.44;4902933;28;123887;-65
2022/06/14 10:16:11;;;;;;;;;;;;;;;37.19;18.65;101259.38;4904432;28;98021;-65
2022/06/14 10:18:46;;;;;;;;;;;;;;;38.47;17.97;101255.69;4912986;28;97860;-61
2022/06/14 10:21:19;;;;;;;;;;;;;;;37.29;18.44;101256.31;4905175;28;98693;-65
2022/06/14 10:23:48;;;;;;;;;;;;;;;36.26;18.79;101252.56;4901342;28;121918;-60
2022/06/14 10:29:43;;;;;;;;;;;;;;;38.47;17.24;101250.06;4920863;28;97873;-61
2022/06/14 10:32:25;;;;;;;;;;;;;;;37.72;18.19;101238.56;4914563;28;98786;-65
2022/06/14 10:35:14;;;;;;;;;;;;;;;37.25;18.41;101240.75;4902267;28;98047;-61
2022/06/14 10:38:08;;;;;;;;;;;;;;;39.16;16.85;101242.16;4892616;28;98179;-65
2022/06/14 10:41:08;;;;;;;;;;;;;;;40.49;16.80;101248.09;4917473;28;118069;-66
2022/06/14 10:43:55;;;;;;;;;;;;;;;41.69;15.58;101238.44;4909177;28;98104;-65
2022/06/14 10:46:34;;;;;;;;;;;;;;;40.26;16.48;101231.56;4916161;28;98816;-66
2022/06/14 10:49:21;;;;;;;;;;;;;;;40.20;16.53;101234.16;4917253;28;100149;-65
2022/06/14 10:52:16;;;;;;;;;;;;;;;41.09;15.80;101227.44;4912473;28;98014;-61
2022/06/14 10:54:59;;;;;;;;;;;;;;;41.56;15.71;101222.84;4900724;28;98815;-66
2022/06/14 10:57:42;;;;;;;;;;;;;;;40.63;15.84;101220.63;4901435;28;98463;-66
2022/06/14 11:00:18;;;;;;;;;;;;;;;41.25;15.64;101225.66;4929901;28;98005;-65
2022/06/14 11:03:01;;;;;;;;;;;;;;;42.12;15.36;101233.13;4921040;28;98352;-61
2022/06/14 11:05:37;;;;;;;;;;;;;;;40.55;15.72;101217.25;4922699;28;98624;-61
2022/06/14 11:08:41;;;;;;;;;;;;;;;41.37;15.21;101219.13;4904122;28;99480;-61
2022/06/14 11:11:13;;;;;;;;;;;;;;;40.29;15.52;101210.13;4922697;28;97894;-66
2022/06/14 11:14:03;;;;;;;;;;;;;;;38.99;16.02;101218.13;4921449;28;98046;-60
2022/06/14 11:16:56;;;;;;;;;;;;;;;37.57;17.28;101207.19;4915977;28;97948;-66
2022/06/14 11:19:40;;;;;;;;;;;;;;;38.42;16.65;101203.56;4908372;28;98677;-66
2022/06/14 11:22:35;;;;;;;;;;;;;;;39.04;16.71;101209.13;4922041;28;97765;-66
2022/06/14 11:25:14;;;;;;;;;;;;;;;37.20;17.34;101204.75;4922386;28;97724;-61
2022/06/14 11:27:46;;;;;;;;;;;;;;;35.99;18.02;101202.13;4919864;28;124417;-60
2022/06/14 11:30:31;;;;;;;;;;;;;;;36.40;17.71;101201.84;4922398;28;98089;-61
2022/06/14 11:33:06;;;;;;;;;;;;;;;37.79;17.37;101195.44;4916129;28;98415;-65
2022/06/14 11:35:40;;;;;;;;;;;;;;;38.54;16.62;101197.19;4902783;28;97733;-66
2022/06/14 11:38:16;;;;;;;;;;;;;;;38.94;16.71;101205.34;4921477;28;98433;-61
2022/06/14 11:40:46;;;;;;;;;;;;;;;38.76;16.82;101202.25;4919627;28;97917;-66
2022/06/14 11:43:44;;;;;;;;;;;;;;;38.03;16.85;101196.88;4917841;28;127497;-60
2022/06/14 11:46:35;;;;;;;;;;;;;;;37.44;17.44;101191.41;4920235;28;98113;-66
2022/06/14 11:49:12;;;;;;;;;;;;;;;37.09;17.51;101188.13;4920147;28;98904;-60
2022/06/14 11:51:46;;;;;;;;;;;;;;;37.15;17.21;101199.66;4936108;28;124493;-66
2022/06/14 11:54:39;;;;;;;;;;;;;;;37.54;16.95;101199.63;4916471;28;97948;-61
2022/06/14 11:57:21;;;;;;;;;;;;;;;37.77;16.92;101187.44;4909292;28;98022;-61
2022/06/14 12:00:01;;;;;;;;;;;;;;;38.03;17.22;101191.25;4916440;28;125552;-61
2022/06/14 12:02:34;;;;;;;;;;;;;;;38.27;16.73;101185.41;4913033;28;123648;-61
2022/06/14 12:05:18;;;;;;;;;;;;;;;37.36;16.96;101182.31;4919948;28;127548;-61
2022/06/14 12:08:05;;;;;;;;;;;;;;;37.89;16.66;101173.91;4909872;28;97792;-66
2022/06/14 12:11:00;;;;;;;;;;;;;;;38.37;16.79;101178.75;4918739;28;106562;-61
2022/06/14 12:13:57;;;;;;;;;;;;;;;38.74;16.23;101185.00;4912419;28;97898;-66
2022/06/14 12:16:30;;;;;;;;;;;;;;;37.50;16.79;101176.44;4915001;28;126517;-66
2022/06/14 12:19:12;;;;;;;;;;;;;;;38.36;16.71;101165.13;4901505;28;115193;-66
2022/06/14 12:21:44;;;;;;;;;;;;;;;38.57;16.81;101166.59;4903639;28;98044;-66
2022/06/14 12:24:13;;;;;;;;;;;;;;;38.68;16.21;101173.50;4932141;28;128808;-61
2022/06/14 12:26:57;;;;;;;;;;;;;;;38.61;16.27;101176.50;4914801;28;98248;-67
2022/06/14 12:29:35;;;;;;;;;;;;;;;38.65;16.60;101171.56;4901002;28;97939;-66
2022/06/14 12:32:28;;;;;;;;;;;;;;;38.65;16.51;101163.13;4904232;28;98313;-60
2022/06/14 12:34:59;;;;;;;;;;;;;;;38.62;16.57;101166.03;4915226;28;109758;-66
2022/06/14 12:37:51;;;;;;;;;;;;;;;38.55;16.34;101164.19;4901256;28;98215;-66
2022/06/14 12:40:53;;;;;;;;;;;;;;;38.52;16.75;101153.84;4902649;28;97825;-66
2022/06/14 12:43:27;;;;;;;;;;;;;;;38.25;16.75;101151.31;4914555;28;127673;-66
2022/06/14 12:46:10;;;;;;;;;;;;;;;38.06;16.55;101153.81;4899934;28;99364;-60
2022/06/14 12:49:09;;;;;;;;;;;;;;;37.60;16.64;101154.91;4911676;28;123017;-61
2022/06/14 12:51:52;;;;;;;;;;;;;;;35.71;17.75;101136.84;4930622;28;97869;-61
2022/06/14 12:54:39;;;;;;;;;;;;;;;35.99;17.45;101134.81;4919257;28;127408;-66
2022/06/14 12:57:18;;;;;;;;;;;;;;;36.25;17.53;101136.75;4908502;28;98448;-60
2022/06/14 12:59:51;;;;;;;;;;;;;;;36.17;17.75;101129.69;4899327;28;98036;-60
2022/06/14 13:02:30;;;;;;;;;;;;;;;36.07;17.91;101130.66;4899330;28;97944;-61
2022/06/14 13:05:11;;;;;;;;;;;;;;;36.00;17.81;101127.97;4917528;28;98551;-61
2022/06/14 13:07:43;;;;;;;;;;;;;;;35.11;18.24;101128.06;4900071;28;118871;-67
2022/06/14 13:10:19;;;;;;;;;;;;;;;34.34;18.41;101128.50;4919987;28;99307;-66
2022/06/14 13:13:00;;;;;;;;;;;;;;;34.20;18.76;101126.66;4915223;28;98126;-60
2022/06/14 13:15:49;;;;;;;;;;;;;;;34.30;18.45;101127.75;4902429;28;98197;-66
2022/06/14 13:18:42;;;;;;;;;;;;;;;34.45;19.01;101118.00;4898658;28;124770;-67
2022/06/14 13:21:30;;;;;;;;;;;;;;;34.29;18.63;101109.38;4903395;28;125969;-66
2022/06/14 13:24:36;;;;;;;;;;;;;;;34.26;19.28;101107.41;4906271;28;97877;-61
2022/06/14 13:27:20;;;;;;;;;;;;;;;34.16;19.21;101113.91;4911186;28;98537;-66
2022/06/14 13:29:54;;;;;;;;;;;;;;;34.22;19.33;101111.44;4918627;28;121723;-66
2022/06/14 13:33:00;;;;;;;;;;;;;;;34.18;19.44;101117.06;4908697;28;97940;-63
2022/06/14 13:35:32;;;;;;;;;;;;;;;34.02;19.12;101116.84;4916439;28;98092;-60
2022/06/14 13:38:13;;;;;;;;;;;;;;;33.76;19.62;101113.44;4901685;28;97984;-66
2022/06/14 13:40:46;;;;;;;;;;;;;;;33.28;19.67;101104.94;4901784;28;122094;-60